Time;durP1;ratioP1;P1;durP2;ratioP2;P2;SDS_P1;SDS_P2;PMS_P1;PMS_P2;Temp;Humidity;BMP_temperature;BMP_pressure;BME280_temperature;BME280_humidity;BME280_pressure;Samples;Min_cycle;Max_cycle;Signal;HPM_P1;HPM_P2
2022/01/06 00:01:46;;;;;;;5.38;2.30;;;9.90;53.30;;;;;;5096976;28;20039;-90
2022/01/06 00:05:00;;;;;;;6.57;2.70;;;10.00;53.30;;;;;;5065560;27;1425161;-91
2022/01/06 00:07:29;;;;;;;7.00;2.47;;;10.30;52.50;;;;;;5093460;28;20016;-92
2022/01/06 00:09:58;;;;;;;6.00;2.53;;;10.40;52.10;;;;;;5093923;28;20034;-92
2022/01/06 00:12:31;;;;;;;6.90;3.05;;;10.60;51.80;;;;;;5111614;28;20051;-91
2022/01/06 00:15:23;;;;;;;6.35;2.30;;;10.60;51.50;;;;;;5108531;28;20020;-92
2022/01/06 00:18:14;;;;;;;6.05;2.67;;;10.50;50.90;;;;;;5091742;28;20058;-86
2022/01/06 00:23:39;;;;;;;3.83;1.98;;;10.30;51.70;;;;;;5108432;28;20153;-92
2022/01/06 00:26:06;;;;;;;5.13;2.00;;;10.00;52.20;;;;;;5111854;28;20033;-91
2022/01/06 00:28:40;;;;;;;4.97;2.20;;;10.20;52.60;;;;;;5093763;28;20562;-90
2022/01/06 00:31:06;;;;;;;6.53;2.47;;;10.30;52.60;;;;;;5093479;28;20512;-93
2022/01/06 00:33:33;;;;;;;7.47;2.47;;;10.70;52.70;;;;;;5083991;28;20017;-90
2022/01/06 00:35:59;;;;;;;5.03;2.42;;;11.20;51.50;;;;;;5073332;28;20447;-87
2022/01/06 00:38:26;;;;;;;5.28;2.20;;;11.10;51.00;;;;;;5073312;28;20024;-89
2022/01/06 00:40:56;;;;;;;7.85;2.90;;;10.90;51.60;;;;;;5072889;28;20016;-93
2022/01/06 00:43:22;;;;;;;;;;;10.70;51.40;;;;;;5058965;28;20041;-92
2022/01/06 00:45:50;;;;;;;9.98;3.20;;;10.60;51.80;;;;;;5090549;28;19904;-90
2022/01/06 00:48:15;;;;;;;6.60;2.20;;;10.80;52.00;;;;;;5072846;28;20032;-91
2022/01/06 00:50:48;;;;;;;6.30;2.50;;;10.50;51.20;;;;;;5072905;28;20020;-92
2022/01/06 00:53:14;;;;;;;5.40;2.88;;;10.30;51.90;;;;;;5070506;28;20021;-89
2022/01/06 00:55:40;;;;;;;7.78;3.50;;;10.30;52.40;;;;;;5090072;28;20024;-82
2022/01/06 00:58:07;;;;;;;5.38;2.70;;;10.70;52.10;;;;;;5052163;28;20028;-83
2022/01/06 01:00:38;;;;;;;7.18;2.67;;;10.80;51.20;;;;;;5051772;28;20371;-87
2022/01/06 01:03:17;;;;;;;8.63;2.60;;;10.90;50.80;;;;;;5052032;28;20050;-84
2022/01/06 01:05:44;;;;;;;6.18;2.50;;;11.10;50.50;;;;;;5052307;28;20389;-88
2022/01/06 01:08:10;;;;;;;7.28;2.50;;;11.00;50.40;;;;;;5068804;28;20119;-90
2022/01/06 01:10:40;;;;;;;6.85;2.53;;;11.00;51.20;;;;;;5089706;28;20039;-88
2022/01/06 01:13:13;;;;;;;5.40;2.20;;;11.00;50.70;;;;;;5064715;28;20024;-91
2022/01/06 01:15:52;;;;;;;4.30;2.10;;;10.90;50.50;;;;;;5062131;28;20413;-92
2022/01/06 01:18:19;;;;;;;6.30;2.33;;;10.70;50.90;;;;;;5058782;28;20021;-90
2022/01/06 01:20:50;;;;;;;4.63;2.50;;;10.30;50.70;;;;;;5050124;28;20017;-90
2022/01/06 01:23:20;;;;;;;6.28;2.47;;;10.10;51.60;;;;;;5038494;28;20029;-88
2022/01/06 01:25:49;;;;;;;5.40;2.50;;;9.80;52.30;;;;;;5038747;28;20021;-88
2022/01/06 01:28:18;;;;;;;6.75;2.45;;;9.70;52.30;;;;;;5038585;28;20029;-90
2022/01/06 01:31:11;;;;;;;4.07;1.70;;;9.90;51.70;;;;;;5055953;28;20025;-90
2022/01/06 01:33:39;;;;;;;5.35;2.72;;;9.70;51.80;;;;;;5038345;28;20025;-86
2022/01/06 01:36:08;;;;;;;4.60;2.25;;;9.80;52.80;;;;;;5039102;28;20021;-90
2022/01/06 01:38:36;;;;;;;5.88;2.25;;;9.60;52.60;;;;;;5038588;28;20066;-91
2022/01/06 01:41:05;;;;;;;5.95;2.45;;;9.30;53.10;;;;;;5056778;28;20029;-89
2022/01/06 01:43:31;;;;;;;5.28;2.53;;;9.80;53.20;;;;;;5058065;28;20413;-90
2022/01/06 01:46:09;;;;;;;6.38;2.20;;;10.00;52.50;;;;;;5058499;28;20021;-87
2022/01/06 01:48:37;;;;;;;6.57;2.83;;;9.60;52.50;;;;;;5047834;28;20388;-92
2022/01/06 01:51:08;;;;;;;7.75;2.83;;;9.60;52.90;;;;;;5067878;28;20008;-87
2022/01/06 01:53:36;;;;;;;4.63;2.40;;;9.60;53.70;;;;;;5076200;28;20012;-91
2022/01/06 01:56:07;;;;;;;4.90;2.17;;;9.70;52.90;;;;;;5058262;28;20101;-88
2022/01/06 01:58:36;;;;;;;5.90;2.50;;;9.70;53.20;;;;;;5058519;28;20052;-91
2022/01/06 02:01:03;;;;;;;6.47;2.47;;;9.70;52.90;;;;;;5053894;28;20051;-87
2022/01/06 02:03:29;;;;;;;9.30;2.70;;;9.20;53.20;;;;;;5040117;28;20365;-92
2022/01/06 02:05:55;;;;;;;7.18;2.22;;;9.30;54.20;;;;;;5038170;28;20013;-91
2022/01/06 02:08:21;;;;;;;5.80;2.17;;;9.40;53.80;;;;;;5066920;28;20028;-88
2022/01/06 02:10:47;;;;;;;5.07;2.28;;;9.30;53.10;;;;;;5048232;28;20024;-92
2022/01/06 02:13:15;;;;;;;4.90;2.53;;;9.70;53.30;;;;;;5038042;28;20025;-85
2022/01/06 02:15:42;;;;;;;7.72;2.70;;;9.60;52.80;;;;;;5049785;28;20020;-93
2022/01/06 02:18:07;;;;;;;4.63;2.30;;;9.60;53.20;;;;;;5057930;28;20032;-92
2022/01/06 02:20:33;;;;;;;5.50;2.60;;;9.80;53.00;;;;;;5039355;28;20021;-92
2022/01/06 02:22:59;;;;;;;4.30;2.30;;;9.70;52.70;;;;;;5038450;28;20464;-92
2022/01/06 02:25:30;;;;;;;4.53;2.28;;;9.30;53.10;;;;;;5056145;28;20104;-93
2022/01/06 02:27:56;;;;;;;5.85;2.58;;;9.20;53.30;;;;;;5054872;28;20111;-91
2022/01/06 02:30:24;;;;;;;6.38;2.85;;;9.30;53.70;;;;;;5038243;28;20028;-88
2022/01/06 02:32:51;;;;;;;8.80;2.50;;;9.40;53.40;;;;;;5056723;28;20017;-93
2022/01/06 02:35:21;;;;;;;5.78;2.20;;;9.20;53.90;;;;;;5047199;28;20025;-90
2022/01/06 02:37:47;;;;;;;4.45;2.08;;;9.10;53.60;;;;;;5049674;28;20021;-90
2022/01/06 02:40:16;;;;;;;5.15;2.40;;;9.40;53.80;;;;;;5068935;28;20070;-84
2022/01/06 02:42:44;;;;;;;5.78;2.30;;;9.40;53.60;;;;;;5037675;28;20024;-92
2022/01/06 02:45:11;;;;;;;5.85;2.28;;;9.60;53.60;;;;;;5046078;28;20021;-86
2022/01/06 02:47:38;;;;;;;6.18;2.28;;;9.40;53.50;;;;;;5075540;28;20025;-91
2022/01/06 02:50:05;;;;;;;6.97;2.33;;;9.40;54.30;;;;;;5049541;28;20022;-91
2022/01/06 02:52:31;;;;;;;5.65;2.25;;;9.40;53.20;;;;;;5048933;28;20028;-92
2022/01/06 02:54:56;;;;;;;5.40;2.25;;;9.60;53.90;;;;;;5072081;28;20218;-93
2022/01/06 02:57:22;;;;;;;5.00;2.35;;;9.90;52.90;;;;;;5044030;28;20115;-89
2022/01/06 02:59:48;;;;;;;6.70;2.55;;;9.30;53.50;;;;;;5074620;28;20112;-93
2022/01/06 03:02:14;;;;;;;5.43;2.28;;;9.20;54.30;;;;;;5053207;28;20021;-89
2022/01/06 03:04:40;;;;;;;5.43;2.20;;;9.40;53.70;;;;;;5033447;28;20124;-88
2022/01/06 03:07:07;;;;;;;5.55;2.35;;;9.30;54.20;;;;;;5053608;28;20025;-91
2022/01/06 03:09:42;;;;;;;6.90;2.40;;;9.20;54.20;;;;;;5052524;28;20067;-80
2022/01/06 03:12:29;;;;;;;4.53;2.03;;;9.10;54.00;;;;;;5053699;28;20024;-88
2022/01/06 03:14:55;;;;;;;5.55;2.28;;;9.10;54.30;;;;;;5047209;28;20017;-87
2022/01/06 03:17:21;;;;;;;5.40;2.58;;;9.10;54.60;;;;;;5037471;28;20025;-84
2022/01/06 03:19:47;;;;;;;5.97;2.58;;;9.00;54.30;;;;;;5033018;28;20523;-86
2022/01/06 03:22:13;;;;;;;6.65;2.30;;;8.60;54.80;;;;;;5034731;28;20063;-84
2022/01/06 03:24:40;;;;;;;6.47;2.42;;;8.50;55.20;;;;;;5032796;28;20087;-89
2022/01/06 03:27:05;;;;;;;6.72;2.25;;;8.60;55.40;;;;;;5034256;28;20364;-88
2022/01/06 03:29:31;;;;;;;7.15;1.95;;;8.90;55.10;;;;;;5032809;28;20029;-91
2022/01/06 03:32:04;;;;;;;8.00;2.40;;;9.30;54.60;;;;;;5051138;28;20017;-90
2022/01/06 03:34:31;;;;;;;5.63;2.10;;;9.00;55.00;;;;;;5037472;28;20028;-82
2022/01/06 03:36:58;;;;;;;5.47;2.17;;;8.80;54.80;;;;;;5034625;28;20075;-85
2022/01/06 03:39:24;;;;;;;4.35;2.38;;;9.00;54.50;;;;;;5054002;28;20017;-86
2022/01/06 03:41:49;;;;;;;5.82;2.20;;;9.30;54.10;;;;;;5041240;28;20048;-88
2022/01/06 03:44:22;;;;;;;5.43;2.50;;;9.50;53.90;;;;;;5034515;28;20034;-87
2022/01/06 03:46:48;;;;;;;4.10;2.15;;;9.60;53.70;;;;;;5033309;28;20113;-87
2022/01/06 03:49:16;;;;;;;6.57;2.35;;;9.70;53.50;;;;;;5045821;28;20107;-89
2022/01/06 03:51:44;;;;;;;4.82;2.28;;;9.70;53.40;;;;;;5052973;28;20029;-88
2022/01/06 03:54:11;;;;;;;5.00;2.20;;;9.90;53.30;;;;;;5041989;28;20072;-90
2022/01/06 03:56:36;;;;;;;6.95;2.30;;;10.10;53.00;;;;;;5049171;28;20028;-89
2022/01/06 03:59:02;;;;;;;6.40;2.55;;;9.60;53.20;;;;;;5032911;28;20033;-86
2022/01/06 04:01:28;;;;;;;6.90;2.40;;;9.60;53.70;;;;;;5034902;28;20029;-89
2022/01/06 04:03:54;;;;;;;5.88;2.20;;;10.00;53.30;;;;;;5052529;28;20480;-89
2022/01/06 04:06:20;;;;;;;4.10;2.00;;;10.10;52.80;;;;;;5052381;28;20013;-92
2022/01/06 04:08:45;;;;;;;6.22;2.60;;;10.10;52.50;;;;;;5036587;28;20032;-91
2022/01/06 04:11:11;;;;;;;5.40;2.30;;;9.70;53.10;;;;;;5032298;28;20032;-86
2022/01/06 04:13:37;;;;;;;6.57;2.80;;;9.80;53.70;;;;;;5033355;28;20025;-91
2022/01/06 04:16:07;;;;;;;5.40;2.10;;;10.00;53.50;;;;;;5039675;28;20372;-92
2022/01/06 04:18:33;;;;;;;4.47;2.38;;;9.90;53.20;;;;;;5049139;28;20099;-92
2022/01/06 04:20:59;;;;;;;4.53;2.25;;;10.10;53.20;;;;;;5046369;28;20061;-90
2022/01/06 04:23:24;;;;;;;4.88;2.00;;;10.20;52.50;;;;;;5052041;28;20087;-88
2022/01/06 04:25:50;;;;;;;4.80;2.15;;;10.10;52.80;;;;;;5039425;28;20028;-87
2022/01/06 04:28:16;;;;;;;6.68;2.70;;;9.90;54.10;;;;;;5053409;28;20865;-88
2022/01/06 04:30:42;;;;;;;8.07;3.67;;;9.90;54.00;;;;;;5052020;28;20056;-88
2022/01/06 04:33:07;;;;;;;7.18;2.60;;;10.00;53.80;;;;;;5052525;28;20013;-87
2022/01/06 04:35:33;;;;;;;7.10;3.40;;;9.70;53.40;;;;;;5042054;28;20371;-90
2022/01/06 04:37:59;;;;;;;5.40;2.50;;;9.40;55.00;;;;;;5032514;28;20026;-90
2022/01/06 04:40:24;;;;;;;7.40;2.22;;;9.50;54.00;;;;;;5032581;28;20021;-81
2022/01/06 04:42:50;;;;;;;16.02;5.75;;;9.70;54.10;;;;;;5048579;28;20021;-90
2022/01/06 04:45:16;;;;;;;5.60;2.60;;;9.50;54.50;;;;;;5045079;28;20030;-91
2022/01/06 04:47:42;;;;;;;7.00;2.75;;;9.30;54.60;;;;;;5043394;28;20079;-89
2022/01/06 04:50:08;;;;;;;7.78;2.05;;;9.10;54.90;;;;;;5054283;28;20021;-87
2022/01/06 04:52:34;;;;;;;6.05;2.20;;;8.80;55.70;;;;;;5056430;28;20017;-92
2022/01/06 04:55:04;;;;;;;5.57;2.22;;;8.80;56.80;;;;;;5056196;28;20036;-91
2022/01/06 04:57:30;;;;;;;;;;;8.90;56.00;;;;;;5057203;28;20024;-91
2022/01/06 04:59:55;;;;;;;5.05;2.45;;;8.70;56.30;;;;;;5056234;28;20412;-91
2022/01/06 05:02:21;;;;;;;4.47;2.30;;;8.80;56.40;;;;;;5055625;28;20416;-93
2022/01/06 05:04:47;;;;;;;5.85;2.80;;;8.50;56.40;;;;;;5055298;28;20045;-85
2022/01/06 05:07:12;;;;;;;5.18;2.35;;;8.50;57.00;;;;;;5056616;28;20020;-91
2022/01/06 05:09:38;;;;;;;9.00;3.47;;;8.70;56.40;;;;;;5055601;28;20021;-89
2022/01/06 05:12:04;;;;;;;5.22;2.00;;;8.50;56.90;;;;;;5056051;28;20017;-91
2022/01/06 05:14:30;;;;;;;11.02;4.43;;;8.20;57.60;;;;;;5056081;28;20032;-88
2022/01/06 05:16:56;;;;;;;5.82;2.47;;;8.40;57.30;;;;;;5057633;28;20017;-92
2022/01/06 05:19:23;;;;;;;5.38;2.55;;;8.60;57.30;;;;;;5057169;28;20033;-86
2022/01/06 05:21:51;;;;;;;6.68;2.25;;;8.60;56.70;;;;;;5055889;28;20028;-91
2022/01/06 05:24:18;;;;;;;5.15;2.63;;;8.70;57.60;;;;;;5055142;28;20029;-91
2022/01/06 05:26:44;;;;;;;7.32;2.72;;;8.80;56.50;;;;;;5039478;28;20021;-88
2022/01/06 05:29:12;;;;;;;5.70;2.50;;;8.80;56.90;;;;;;5055618;28;20032;-85
2022/01/06 05:31:38;;;;;;;6.90;2.58;;;8.40;56.90;;;;;;5054848;28;20046;-91
2022/01/06 05:34:07;;;;;;;5.50;2.50;;;8.30;57.60;;;;;;5055475;28;20021;-91
2022/01/06 05:36:34;;;;;;;6.63;2.72;;;8.40;57.70;;;;;;5055440;28;20059;-85
2022/01/06 05:39:00;;;;;;;5.40;2.60;;;8.40;57.70;;;;;;5055719;28;20107;-91
2022/01/06 05:41:26;;;;;;;7.68;2.83;;;8.40;57.90;;;;;;5055528;28;20021;-87
2022/01/06 05:43:52;;;;;;;6.70;2.72;;;8.40;57.80;;;;;;5056198;28;20063;-89
2022/01/06 05:46:18;;;;;;;6.07;3.22;;;8.40;57.90;;;;;;5055927;28;20021;-90
2022/01/06 05:48:45;;;;;;;8.23;2.97;;;8.60;57.40;;;;;;5056717;28;20020;-91
2022/01/06 05:51:11;;;;;;;7.43;2.72;;;8.50;57.90;;;;;;5055843;28;20108;-91
2022/01/06 05:53:37;;;;;;;5.95;2.80;;;8.60;58.30;;;;;;5054373;28;20771;-95
2022/01/06 05:56:03;;;;;;;5.25;2.58;;;8.70;58.90;;;;;;5036145;28;20029;-93
2022/01/06 05:58:28;;;;;;;7.68;3.10;;;8.70;57.30;;;;;;5036457;28;20424;-91
2022/01/06 06:00:54;;;;;;;5.07;2.90;;;8.90;57.60;;;;;;5035357;28;20032;-90
2022/01/06 06:03:20;;;;;;;6.07;3.08;;;9.10;57.00;;;;;;5042017;28;20079;-89
2022/01/06 06:05:46;;;;;;;6.20;2.80;;;8.80;57.20;;;;;;5040522;28;20036;-96
2022/01/06 06:08:11;;;;;;;6.65;2.90;;;8.80;57.20;;;;;;5039918;28;20094;-94
2022/01/06 06:10:37;;;;;;;4.85;2.55;;;8.70;57.40;;;;;;5040698;28;20036;-94
2022/01/06 06:13:32;;;;;;;5.60;2.70;;;8.90;57.00;;;;;;5040255;28;20108;-94
2022/01/06 06:16:00;;;;;;;6.03;2.78;;;9.00;56.40;;;;;;5039749;28;20108;-91
2022/01/06 06:18:29;;;;;;;6.63;3.67;;;9.10;56.60;;;;;;5057534;28;20088;-94
2022/01/06 06:20:58;;;;;;;6.35;2.70;;;9.20;56.90;;;;;;5039397;28;20032;-94
2022/01/06 06:23:23;;;;;;;6.00;3.05;;;9.40;56.30;;;;;;5057914;28;20102;-94
2022/01/06 06:25:49;;;;;;;6.13;2.80;;;9.40;55.90;;;;;;5040281;28;20402;-94
2022/01/06 06:28:15;;;;;;;5.55;3.15;;;8.70;56.80;;;;;;5038735;28;20020;-88
2022/01/06 06:30:41;;;;;;;9.23;3.35;;;8.70;57.70;;;;;;5057064;28;20128;-95
2022/01/06 06:33:06;;;;;;;5.72;2.88;;;8.90;57.10;;;;;;5039483;28;20017;-85
2022/01/06 06:35:32;;;;;;;7.25;3.35;;;9.30;56.30;;;;;;5039491;28;20031;-87
2022/01/06 06:37:58;;;;;;;6.57;3.35;;;8.80;57.10;;;;;;5039760;28;20483;-83
2022/01/06 06:40:24;;;;;;;6.15;2.88;;;9.10;56.80;;;;;;5056725;28;20024;-95
2022/01/06 06:42:51;;;;;;;6.47;3.20;;;9.10;56.80;;;;;;5039099;28;20100;-92
2022/01/06 06:45:19;;;;;;;5.88;2.95;;;9.10;57.20;;;;;;5039367;28;20029;-94
2022/01/06 06:47:45;;;;;;;6.68;2.85;;;9.10;57.00;;;;;;5038517;28;20017;-93
2022/01/06 06:50:12;;;;;;;5.65;3.28;;;9.10;57.20;;;;;;5038269;28;20021;-94
2022/01/06 06:52:38;;;;;;;5.32;2.50;;;8.90;56.90;;;;;;5038672;28;20411;-92
2022/01/06 06:55:04;;;;;;;7.68;2.60;;;8.90;57.00;;;;;;5039053;28;20021;-94
2022/01/06 06:57:33;;;;;;;5.03;2.70;;;9.00;57.40;;;;;;5038870;28;20464;-93
2022/01/06 07:00:03;;;;;;;5.25;2.78;;;8.80;57.20;;;;;;5039971;28;20024;-95
2022/01/06 07:02:29;;;;;;;5.28;3.00;;;8.40;58.70;;;;;;5039492;28;20021;-95
2022/01/06 07:04:54;;;;;;;7.10;4.03;;;8.50;58.30;;;;;;5039333;28;20048;-92
2022/01/06 07:07:20;;;;;;;7.20;3.10;;;8.70;58.20;;;;;;5039182;28;20021;-91
2022/01/06 07:09:46;;;;;;;7.75;2.95;;;8.80;57.10;;;;;;5038977;28;20055;-95
2022/01/06 07:12:11;;;;;;;7.50;3.38;;;8.80;57.90;;;;;;5039122;28;20031;-93
2022/01/06 07:14:37;;;;;;;6.68;3.50;;;8.70;58.10;;;;;;5038939;28;20025;-96
2022/01/06 07:17:03;;;;;;;7.18;3.42;;;9.00;57.90;;;;;;5039352;28;20107;-93
2022/01/06 07:19:29;;;;;;;7.13;3.30;;;9.00;57.40;;;;;;5039365;28;20032;-92
2022/01/06 07:21:54;;;;;;;6.82;3.53;;;8.70;58.00;;;;;;5039065;28;20094;-94
2022/01/06 07:24:20;;;;;;;7.15;3.63;;;8.90;58.50;;;;;;5038497;28;20029;-94
2022/01/06 07:26:46;;;;;;;7.85;3.53;;;9.20;57.70;;;;;;5038606;28;20104;-93
2022/01/06 07:29:11;;;;;;;8.07;4.05;;;9.10;57.90;;;;;;5039382;28;20055;-94
2022/01/06 07:31:37;;;;;;;8.82;4.45;;;9.40;57.10;;;;;;5039117;28;20024;-92
2022/01/06 07:34:05;;;;;;;9.20;4.22;;;9.40;56.90;;;;;;5038584;28;20025;-92
2022/01/06 07:36:31;;;;;;;7.57;3.67;;;9.40;57.00;;;;;;5039960;28;20483;-92
2022/01/06 07:38:56;;;;;;;7.32;3.97;;;9.10;58.10;;;;;;5038964;28;20021;-95
2022/01/06 07:41:22;;;;;;;10.13;5.53;;;9.20;58.20;;;;;;5038259;28;20514;-94
2022/01/06 07:43:48;;;;;;;9.30;4.00;;;9.50;57.40;;;;;;5037789;28;20371;-93
2022/01/06 07:46:13;;;;;;;11.27;5.20;;;9.60;56.50;;;;;;5037616;28;20020;-94
2022/01/06 07:48:55;;;;;;;11.15;5.32;;;9.70;56.50;;;;;;5037512;28;20024;-94
2022/01/06 07:51:22;;;;;;;9.15;3.65;;;10.20;55.90;;;;;;5037787;28;20017;-96
2022/01/06 07:53:51;;;;;;;6.50;3.83;;;9.60;55.80;;;;;;5038009;28;20071;-95
2022/01/06 07:56:17;;;;;;;11.45;4.43;;;9.00;57.50;;;;;;5038716;28;20021;-92
2022/01/06 07:58:46;;;;;;;18.60;8.68;;;9.00;58.50;;;;;;5038095;28;20091;-90
2022/01/06 08:01:12;;;;;;;55.17;22.90;;;9.50;57.00;;;;;;5038447;28;20402;-95
2022/01/06 08:03:38;;;;;;;40.25;17.77;;;9.10;57.70;;;;;;5038320;28;20045;-91
2022/01/06 08:06:06;;;;;;;29.08;13.77;;;9.10;58.40;;;;;;5038892;28;20036;-95
2022/01/06 08:08:31;;;;;;;16.20;10.48;;;9.20;58.10;;;;;;5037143;28;20134;-87
2022/01/06 08:10:57;;;;;;;11.05;6.22;;;9.30;58.00;;;;;;5038452;28;20024;-91
2022/01/06 08:13:32;;;;;;;7.75;3.90;;;9.60;56.90;;;;;;5038835;28;20115;-88
2022/01/06 08:15:58;;;;;;;8.52;4.57;;;9.60;56.40;;;;;;5038584;28;20044;-90
2022/01/06 08:18:24;;;;;;;8.68;4.20;;;9.20;57.00;;;;;;5039086;28;20017;-95
2022/01/06 08:20:49;;;;;;;9.52;4.30;;;9.10;57.90;;;;;;5039224;28;20021;-94
2022/01/06 08:23:18;;;;;;;8.18;4.00;;;9.30;57.60;;;;;;5038882;28;20025;-93
2022/01/06 08:25:43;;;;;;;12.00;4.28;;;9.40;57.20;;;;;;5039717;28;20029;-87
2022/01/06 08:28:13;;;;;;;8.32;3.85;;;9.20;57.40;;;;;;5043826;28;20021;-95
2022/01/06 08:30:39;;;;;;;9.85;4.10;;;9.00;57.80;;;;;;5043795;28;20381;-94
2022/01/06 08:33:05;;;;;;;9.27;4.05;;;9.20;57.50;;;;;;5042674;28;20035;-92
2022/01/06 08:35:31;;;;;;;7.85;3.90;;;9.70;57.70;;;;;;5042342;28;20025;-85
2022/01/06 08:37:57;;;;;;;6.30;4.03;;;10.00;56.70;;;;;;5042753;28;20044;-95
2022/01/06 08:40:24;;;;;;;8.38;4.05;;;10.10;56.10;;;;;;5042649;28;20468;-95
2022/01/06 08:42:50;;;;;;;8.45;4.30;;;10.30;56.10;;;;;;5042691;28;20027;-92
2022/01/06 08:45:17;;;;;;;11.70;4.10;;;10.60;55.60;;;;;;5042531;28;20464;-91
2022/01/06 08:47:44;;;;;;;10.80;5.20;;;10.80;55.00;;;;;;5041768;28;20017;-86
2022/01/06 08:50:10;;;;;;;9.40;4.53;;;10.70;55.20;;;;;;5040935;28;20031;-92
2022/01/06 08:52:37;;;;;;;8.73;4.07;;;10.80;54.80;;;;;;5040438;28;20063;-95
2022/01/06 08:55:05;;;;;;;8.25;3.85;;;11.20;54.60;;;;;;5042160;28;20025;-89
2022/01/06 08:57:31;;;;;;;9.23;3.88;;;10.80;54.40;;;;;;5042017;28;20021;-88
2022/01/06 08:59:58;;;;;;;8.57;3.55;;;10.80;55.00;;;;;;5041157;28;20048;-92
2022/01/06 09:02:27;;;;;;;8.55;3.72;;;11.10;55.00;;;;;;5042225;28;20029;-93
2022/01/06 09:04:53;;;;;;;9.13;3.75;;;11.50;53.70;;;;;;5040841;28;20052;-92
2022/01/06 09:07:19;;;;;;;9.32;3.95;;;11.20;53.70;;;;;;5041491;28;20448;-86
2022/01/06 09:09:47;;;;;;;8.15;4.07;;;10.60;54.30;;;;;;5041695;28;20409;-86
2022/01/06 09:12:17;;;;;;;8.18;4.38;;;10.20;55.90;;;;;;5041054;28;20047;-92
2022/01/06 09:14:43;;;;;;;10.52;4.30;;;10.40;56.20;;;;;;5040930;28;20025;-92
2022/01/06 09:17:09;;;;;;;7.90;3.88;;;10.60;55.50;;;;;;5040208;28;20056;-94
2022/01/06 09:19:35;;;;;;;8.57;3.80;;;10.90;55.30;;;;;;5041127;28;20064;-90
2022/01/06 09:22:01;;;;;;;6.50;3.55;;;10.80;55.20;;;;;;5040437;28;20017;-85
2022/01/06 09:24:28;;;;;;;9.77;5.78;;;10.80;54.70;;;;;;5040544;28;20025;-93
2022/01/06 09:26:54;;;;;;;95.25;46.92;;;10.70;55.60;;;;;;5040863;28;20423;-94
2022/01/06 09:29:19;;;;;;;75.53;37.55;;;11.10;55.10;;;;;;5039715;28;20021;-93
2022/01/06 09:31:45;;;;;;;18.60;10.98;;;12.20;53.80;;;;;;5039450;28;20035;-91
2022/01/06 09:34:11;;;;;;;12.90;7.28;;;12.10;52.30;;;;;;5039251;28;20108;-93
2022/01/06 09:36:41;;;;;;;8.98;3.53;;;12.00;53.40;;;;;;5038949;28;20027;-88
2022/01/06 09:39:10;;;;;;;8.40;3.92;;;12.10;52.30;;;;;;5040934;28;20025;-82
2022/01/06 09:41:36;;;;;;;6.63;3.35;;;12.20;53.20;;;;;;5040557;28;20082;-94
2022/01/06 09:44:02;;;;;;;7.00;3.30;;;11.90;52.80;;;;;;5039447;28;20127;-92
2022/01/06 09:46:30;;;;;;;10.43;3.78;;;12.30;53.40;;;;;;5039597;28;20021;-95
2022/01/06 09:48:58;;;;;;;7.45;3.33;;;13.10;52.20;;;;;;5040531;28;20032;-94
2022/01/06 09:51:25;;;;;;;7.53;3.13;;;12.60;51.10;;;;;;5056755;28;20100;-90
2022/01/06 09:53:56;;;;;;;8.05;3.20;;;12.30;51.80;;;;;;5038911;28;20017;-93
2022/01/06 09:58:24;;;;;;;7.28;3.15;;;12.40;51.70;;;;;;5073485;28;20935;-95
2022/01/06 10:00:50;;;;;;;7.10;3.35;;;12.60;52.30;;;;;;5073183;28;20020;-88
2022/01/06 10:03:17;;;;;;;6.75;3.33;;;12.70;51.00;;;;;;5071183;28;20074;-88
2022/01/06 10:05:45;;;;;;;5.63;3.00;;;12.50;52.60;;;;;;5070783;28;20090;-93
2022/01/06 10:08:12;;;;;;;7.10;3.15;;;12.90;51.40;;;;;;5070228;28;20086;-87
2022/01/06 10:10:40;;;;;;;6.40;3.42;;;13.00;51.00;;;;;;5072093;28;20031;-92
2022/01/06 10:13:08;;;;;;;7.72;3.30;;;12.90;51.00;;;;;;5071189;28;20020;-82
2022/01/06 10:15:39;;;;;;;10.65;5.03;;;12.30;51.20;;;;;;5071715;28;20020;-90
2022/01/06 10:18:16;;;;;;;12.50;6.75;;;11.70;53.10;;;;;;5071849;28;20468;-93
2022/01/06 10:20:43;;;;;;;75.00;35.35;;;11.20;53.50;;;;;;5072006;28;20032;-93
2022/01/06 10:23:16;;;;;;;64.85;32.25;;;11.00;54.60;;;;;;5071499;28;20023;-90
2022/01/06 10:26:58;;;;;;;20.23;8.93;;;10.70;54.60;;;;;;5086577;27;1410224;-91
2022/01/06 10:29:30;;;;;;;7.10;4.00;;;10.50;55.40;;;;;;5094637;28;20028;-87
2022/01/06 10:32:09;;;;;;;12.32;5.97;;;10.30;56.00;;;;;;5095164;28;20022;-91
2022/01/06 10:34:42;;;;;;;9.45;4.35;;;10.60;56.00;;;;;;5074620;28;20036;-88
2022/01/06 10:37:16;;;;;;;9.82;5.13;;;10.90;55.00;;;;;;5075024;28;20374;-83
2022/01/06 10:39:43;;;;;;;9.23;4.78;;;11.10;54.10;;;;;;5074363;28;20009;-95
2022/01/06 10:42:10;;;;;;;12.25;6.40;;;11.00;54.80;;;;;;5074495;28;20115;-90
2022/01/06 10:44:47;;;;;;;12.18;4.55;;;11.20;54.30;;;;;;5092483;28;20031;-90
2022/01/06 10:47:12;;;;;;;8.35;4.68;;;11.20;55.00;;;;;;5092280;28;20056;-83
2022/01/06 10:49:38;;;;;;;11.63;5.60;;;11.30;54.40;;;;;;5074563;28;20456;-95
2022/01/06 10:52:04;;;;;;;9.85;5.95;;;11.40;54.60;;;;;;5075056;28;20020;-93
2022/01/06 10:54:29;;;;;;;9.88;4.72;;;11.70;53.90;;;;;;5091698;28;20026;-93
2022/01/06 10:57:03;;;;;;;9.05;4.70;;;11.70;54.10;;;;;;5092909;28;20028;-89
2022/01/06 10:59:34;;;;;;;7.45;3.92;;;11.30;54.30;;;;;;5074561;28;20034;-93
2022/01/06 11:02:00;;;;;;;9.50;4.75;;;11.10;55.00;;;;;;5074465;28;20028;-93
2022/01/06 11:04:28;;;;;;;7.20;3.65;;;11.20;55.60;;;;;;5074019;28;20028;-90
2022/01/06 11:06:54;;;;;;;9.15;3.60;;;11.30;55.10;;;;;;5075090;28;20074;-92
2022/01/06 11:09:20;;;;;;;8.50;4.32;;;10.80;55.80;;;;;;5091844;28;20016;-91
2022/01/06 11:14:25;;;;;;;23.85;4.50;;;11.10;55.50;;;;;;5092413;28;20043;-95
2022/01/06 11:16:51;;;;;;;6.50;3.38;;;11.20;55.60;;;;;;5074243;28;20046;-93
2022/01/06 11:19:17;;;;;;;7.40;3.88;;;11.20;55.20;;;;;;5074389;28;20542;-93
2022/01/06 11:21:46;;;;;;;9.50;4.68;;;10.90;55.40;;;;;;5074628;28;20429;-92
2022/01/06 11:24:16;;;;;;;5.72;3.40;;;10.80;55.90;;;;;;5091504;28;20028;-92
2022/01/06 11:26:55;;;;;;;8.30;4.13;;;10.90;56.20;;;;;;5073219;28;20048;-90
2022/01/06 11:29:43;;;;;;;8.05;3.92;;;10.60;57.10;;;;;;5091150;28;20036;-90
2022/01/06 11:32:23;;;;;;;8.45;4.15;;;10.90;56.20;;;;;;5073667;28;20546;-88
2022/01/06 11:35:11;;;;;;;8.93;4.05;;;11.00;55.90;;;;;;5073391;28;20086;-92
2022/01/06 11:37:48;;;;;;;5.68;3.10;;;11.00;56.40;;;;;;5062848;28;20356;-84
2022/01/06 11:40:16;;;;;;;7.45;3.88;;;11.20;56.30;;;;;;5078147;28;20021;-85
2022/01/06 11:42:57;;;;;;;9.13;3.30;;;11.50;55.20;;;;;;5078041;28;20386;-87
2022/01/06 11:45:23;;;;;;;7.05;3.28;;;11.20;55.50;;;;;;5077718;28;20421;-86
2022/01/06 11:48:07;;;;;;;8.23;3.55;;;11.00;56.30;;;;;;5077269;28;20459;-89
2022/01/06 11:50:46;;;;;;;7.15;3.20;;;11.30;56.20;;;;;;5059722;28;20024;-86
2022/01/06 11:53:12;;;;;;;7.28;3.03;;;11.00;55.50;;;;;;5077592;28;20050;-88
2022/01/06 11:55:46;;;;;;;6.30;3.53;;;11.10;55.20;;;;;;5059773;28;20390;-92
2022/01/06 11:58:21;;;;;;;8.48;4.28;;;11.80;55.70;;;;;;5059244;28;20017;-87
2022/01/06 12:01:01;;;;;;;6.78;3.10;;;12.00;54.10;;;;;;5059121;28;20024;-91
2022/01/06 12:03:47;;;;;;;5.18;2.75;;;12.10;54.00;;;;;;5059409;28;20024;-93
2022/01/06 12:06:31;;;;;;;7.53;3.63;;;12.40;53.70;;;;;;5059286;28;20044;-90
2022/01/06 12:08:58;;;;;;;5.35;2.40;;;12.10;53.30;;;;;;5059180;28;20287;-87
2022/01/06 12:11:33;;;;;;;5.65;2.70;;;11.90;53.30;;;;;;5059611;28;20016;-95
2022/01/06 12:14:02;;;;;;;4.32;2.40;;;11.60;54.00;;;;;;5076750;28;20020;-93
2022/01/06 12:16:32;;;;;;;6.20;2.50;;;12.00;54.20;;;;;;5058880;28;20020;-90
2022/01/06 12:18:59;;;;;;;7.03;3.47;;;12.40;52.80;;;;;;5059079;28;20074;-85
2022/01/06 12:21:26;;;;;;;6.68;2.50;;;12.10;53.00;;;;;;5058642;28;20111;-93
2022/01/06 12:24:07;;;;;;;5.00;2.20;;;12.30;53.00;;;;;;5076720;28;20108;-88
2022/01/06 12:26:33;;;;;;;;;;;12.30;52.80;;;;;;5076519;28;20082;-91
2022/01/06 12:29:00;;;;;;;6.25;2.67;;;12.10;53.60;;;;;;5058784;28;19946;-84
2022/01/06 12:31:28;;;;;;;5.30;2.65;;;12.40;53.40;;;;;;4707074;28;10000704;-89
2022/01/06 12:33:58;;;;;;;6.85;3.10;;;12.90;52.70;;;;;;5057644;28;20044;-89
2022/01/06 12:36:26;;;;;;;6.65;3.10;;;13.20;51.60;;;;;;5076082;28;20020;-91
2022/01/06 12:38:53;;;;;;;5.70;3.17;;;12.70;52.30;;;;;;5041867;28;20040;-86
2022/01/06 12:41:29;;;;;;;10.73;4.57;;;11.60;53.40;;;;;;5057860;28;20020;-90
2022/01/06 12:43:56;;;;;;;6.43;2.85;;;11.60;54.70;;;;;;5057770;28;20409;-90
2022/01/06 12:46:24;;;;;;;8.20;3.40;;;11.80;53.20;;;;;;5058051;28;20032;-92
2022/01/06 12:48:53;;;;;;;6.55;3.20;;;11.80;54.60;;;;;;5056835;28;20020;-88
2022/01/06 12:51:24;;;;;;;23.15;12.85;;;11.70;54.00;;;;;;5058313;28;20032;-83
2022/01/06 12:53:58;;;;;;;20.80;11.50;;;11.70;53.10;;;;;;5075139;28;20096;-91
2022/01/06 12:56:32;;;;;;;19.90;10.10;;;11.60;54.00;;;;;;5057090;28;20023;-81
2022/01/06 12:59:00;;;;;;;25.65;12.07;;;12.10;53.20;;;;;;5057881;28;20336;-87
2022/01/06 13:01:30;;;;;;;6.75;2.97;;;12.10;52.50;;;;;;5057480;28;20035;-87
2022/01/06 13:03:57;;;;;;;5.97;2.75;;;11.80;52.50;;;;;;5057453;28;20021;-94
2022/01/06 13:06:30;;;;;;;8.35;3.95;;;11.20;52.80;;;;;;5057190;28;20028;-82